createdAt,value
2024-02-18T00:01:38.523Z,2.55
2024-02-18T00:04:06.685Z,2.65
2024-02-18T00:06:36.325Z,2.40
2024-02-18T00:09:04.555Z,2.65
2024-02-18T00:11:32.367Z,2.15
2024-02-18T00:14:00.173Z,2.42
2024-02-18T00:16:28.013Z,2.50
2024-02-18T00:18:55.836Z,2.65
2024-02-18T00:21:23.881Z,3.10
2024-02-18T00:23:53.152Z,3.00
2024-02-18T00:26:30.128Z,2.42
2024-02-18T00:29:08.305Z,2.53
2024-02-18T00:31:36.710Z,2.80
2024-02-18T00:34:04.738Z,3.00
2024-02-18T00:36:32.517Z,3.03
2024-02-18T00:39:01.647Z,2.17
2024-02-18T00:41:29.406Z,3.30
2024-02-18T00:43:57.141Z,3.00
2024-02-18T00:46:37.819Z,3.45
2024-02-18T00:49:12.580Z,2.90
2024-02-18T00:51:40.528Z,3.22
2024-02-18T00:54:09.765Z,3.88
2024-02-18T00:56:37.509Z,2.97
2024-02-18T00:59:05.240Z,3.42
2024-02-18T01:01:33.123Z,2.85
2024-02-18T01:04:01.076Z,2.95
2024-02-18T01:06:28.992Z,3.10
2024-02-18T01:08:56.831Z,3.30
2024-02-18T01:11:26.157Z,2.78
2024-02-18T01:13:54.064Z,3.20
2024-02-18T01:16:21.804Z,3.35
2024-02-18T01:18:50.970Z,3.38
2024-02-18T01:21:19.676Z,3.30
2024-02-18T01:23:47.646Z,3.22
2024-02-18T01:26:15.419Z,3.65
2024-02-18T01:28:44.534Z,3.45
2024-02-18T01:31:12.356Z,3.10
2024-02-18T01:33:40.245Z,3.33
2024-02-18T01:36:08.197Z,3.90
2024-02-18T01:38:36.286Z,3.00
2024-02-18T01:41:04.076Z,2.60
2024-02-18T01:43:31.905Z,3.03
2024-02-18T01:46:01.624Z,2.80
2024-02-18T01:48:30.175Z,2.92
2024-02-18T01:50:58.130Z,2.53
2024-02-18T01:53:26.104Z,2.83
2024-02-18T01:55:53.986Z,2.83
2024-02-18T01:58:22.045Z,3.10
2024-02-18T02:00:50.851Z,3.28
2024-02-18T02:03:20.699Z,2.92
2024-02-18T02:05:49.323Z,3.08
2024-02-18T02:08:17.450Z,2.40
2024-02-18T02:10:45.784Z,3.25
2024-02-18T02:13:13.704Z,2.92
2024-02-18T02:15:42.010Z,2.95
2024-02-18T02:18:09.935Z,2.50
2024-02-18T02:20:39.143Z,2.58
2024-02-18T02:23:07.148Z,2.95
2024-02-18T02:25:36.522Z,2.78
2024-02-18T02:28:22.501Z,2.35
2024-02-18T02:30:52.145Z,2.33
2024-02-18T02:33:21.204Z,2.65
2024-02-18T02:35:49.361Z,2.55
2024-02-18T02:38:17.156Z,3.15
2024-02-18T02:40:44.941Z,2.85
2024-02-18T02:43:13.789Z,3.00
2024-02-18T02:45:41.766Z,2.42
2024-02-18T02:48:10.973Z,2.58
2024-02-18T02:50:39.404Z,2.33
2024-02-18T02:53:07.745Z,2.30
2024-02-18T02:55:35.553Z,2.42
2024-02-18T02:58:03.490Z,2.60
2024-02-18T03:00:32.458Z,2.85
2024-02-18T03:03:00.273Z,2.78
2024-02-18T03:05:29.402Z,2.55
2024-02-18T03:07:57.185Z,2.60
2024-02-18T03:10:25.009Z,2.42
2024-02-18T03:12:52.840Z,1.90
2024-02-18T03:15:20.872Z,2.58
2024-02-18T03:17:48.749Z,2.42
2024-02-18T03:20:17.030Z,3.13
2024-02-18T03:22:46.244Z,1.92
2024-02-18T03:25:15.204Z,2.28
2024-02-18T03:27:43.291Z,2.55
2024-02-18T03:30:11.903Z,2.53
2024-02-18T03:32:39.917Z,2.15
2024-02-18T03:35:09.109Z,2.20
2024-02-18T03:37:37.008Z,2.40
2024-02-18T03:40:07.709Z,2.30
2024-02-18T03:42:35.673Z,3.03
2024-02-18T03:45:03.516Z,2.40
2024-02-18T03:47:31.351Z,2.40
2024-02-18T03:49:59.331Z,2.75
2024-02-18T03:52:27.232Z,2.25
2024-02-18T03:54:54.979Z,2.78
2024-02-18T03:57:24.157Z,2.20
2024-02-18T03:59:51.890Z,2.50
2024-02-18T04:02:19.641Z,2.80
2024-02-18T04:04:47.386Z,2.58
2024-02-18T04:07:15.318Z,2.63
2024-02-18T04:09:43.130Z,2.70
2024-02-18T04:12:10.965Z,2.30
2024-02-18T04:14:40.098Z,2.10
2024-02-18T04:17:08.183Z,2.05
2024-02-18T04:19:36.117Z,2.47
2024-02-18T04:22:04.039Z,2.80
2024-02-18T04:24:31.863Z,2.22
2024-02-18T04:26:59.649Z,2.65
2024-02-18T04:29:28.250Z,2.13
2024-02-18T04:31:57.373Z,2.40
2024-02-18T04:34:25.190Z,2.67
2024-02-18T04:36:52.980Z,2.15
2024-02-18T04:39:20.904Z,2.13
2024-02-18T04:41:48.787Z,2.10
2024-02-18T04:44:17.055Z,1.88
2024-02-18T04:46:44.841Z,2.05
2024-02-18T04:49:15.307Z,2.90
2024-02-18T04:51:43.220Z,2.33
2024-02-18T04:54:11.063Z,2.78
2024-02-18T04:56:38.789Z,2.20
2024-02-18T04:59:06.576Z,2.17
2024-02-18T05:01:34.506Z,2.40
2024-02-18T05:04:02.431Z,2.63
2024-02-18T05:06:31.627Z,2.92
2024-02-18T05:08:59.425Z,2.53
2024-02-18T05:11:27.300Z,2.53
2024-02-18T05:13:55.102Z,2.42
2024-02-18T05:16:22.942Z,2.38
2024-02-18T05:18:50.788Z,2.33
2024-02-18T05:21:18.847Z,1.98
2024-02-18T05:23:47.999Z,2.00
2024-02-18T05:26:16.318Z,2.50
2024-02-18T05:28:44.122Z,2.13
2024-02-18T05:31:23.407Z,2.10
2024-02-18T05:33:51.507Z,2.00
2024-02-18T05:36:20.843Z,2.28
2024-02-18T05:38:50.296Z,2.00
2024-02-18T05:41:18.721Z,2.10
2024-02-18T05:43:47.042Z,2.90
2024-02-18T05:46:14.870Z,2.78
2024-02-18T05:48:43.064Z,2.10
2024-02-18T05:51:10.928Z,2.10
2024-02-18T05:53:38.900Z,2.05
2024-02-18T05:56:08.824Z,2.00
2024-02-18T05:58:36.642Z,1.77
2024-02-18T06:01:04.648Z,1.83
2024-02-18T06:03:32.617Z,1.83
2024-02-18T06:06:00.572Z,2.50
2024-02-18T06:08:28.545Z,2.00
2024-02-18T06:10:56.502Z,2.83
2024-02-18T06:13:25.805Z,2.50
2024-02-18T06:15:53.664Z,2.38
2024-02-18T06:18:21.622Z,2.40
2024-02-18T06:20:49.471Z,1.73
2024-02-18T06:23:17.295Z,2.10
2024-02-18T06:25:45.082Z,1.98
2024-02-18T06:28:13.308Z,2.22
2024-02-18T06:30:42.538Z,1.92
2024-02-18T06:33:10.751Z,1.92
2024-02-18T06:35:38.914Z,1.80
2024-02-18T06:38:06.765Z,2.22
2024-02-18T06:40:34.521Z,3.15
2024-02-18T06:43:02.322Z,2.25
2024-02-18T06:45:30.185Z,2.55
2024-02-18T06:47:59.397Z,2.17
2024-02-18T06:50:27.293Z,2.35
2024-02-18T06:52:54.145Z,2.42
2024-02-18T06:55:21.967Z,1.77
2024-02-18T06:57:49.888Z,2.50
2024-02-18T07:00:18.553Z,2.00
2024-02-18T07:02:46.309Z,1.95
2024-02-18T07:05:15.485Z,2.95
2024-02-18T07:07:43.212Z,1.83
2024-02-18T07:10:11.199Z,1.95
2024-02-18T07:12:39.012Z,1.90
2024-02-18T07:15:07.770Z,2.00
2024-02-18T07:17:35.611Z,2.38
2024-02-18T07:20:04.560Z,2.05
2024-02-18T07:22:34.103Z,2.22
2024-02-18T07:25:02.189Z,2.25
2024-02-18T07:27:29.970Z,2.42
2024-02-18T07:29:57.990Z,2.45
2024-02-18T07:32:25.940Z,2.40
2024-02-18T07:34:54.046Z,2.15
2024-02-18T07:37:21.926Z,3.50
2024-02-18T07:39:51.507Z,2.63
2024-02-18T07:42:19.565Z,2.28
2024-02-18T07:44:48.201Z,2.95
2024-02-18T07:47:16.021Z,3.25
2024-02-18T07:49:44.289Z,2.88
2024-02-18T07:52:12.160Z,2.00
2024-02-18T07:54:40.068Z,2.20
2024-02-18T07:57:09.232Z,3.13
2024-02-18T07:59:37.458Z,1.92
2024-02-18T08:02:05.732Z,1.83
2024-02-18T08:04:33.678Z,1.92
2024-02-18T08:07:01.658Z,2.20
2024-02-18T08:09:29.705Z,2.00
2024-02-18T08:11:57.517Z,2.53
2024-02-18T08:14:26.648Z,2.28
2024-02-18T08:16:56.256Z,2.30
2024-02-18T08:19:24.297Z,1.90
2024-02-18T08:21:53.038Z,2.38
2024-02-18T08:24:21.005Z,2.53
2024-02-18T08:26:48.745Z,3.63
2024-02-18T08:29:16.491Z,2.20
2024-02-18T08:31:45.594Z,2.70
2024-02-18T08:34:13.617Z,2.30
2024-02-18T08:36:41.534Z,1.88
2024-02-18T08:39:09.365Z,2.28
2024-02-18T08:41:37.126Z,2.85
2024-02-18T08:44:05.007Z,2.72
2024-02-18T08:46:34.148Z,2.15
2024-02-18T08:49:04.764Z,2.28
2024-02-18T08:51:32.652Z,2.17
2024-02-18T08:54:00.496Z,1.70
2024-02-18T08:56:28.278Z,1.75
2024-02-18T08:58:56.036Z,1.70
2024-02-18T09:01:23.995Z,2.00
2024-02-18T09:03:51.985Z,2.30
2024-02-18T09:06:21.348Z,1.70
2024-02-18T09:08:49.404Z,1.95
2024-02-18T09:11:17.540Z,1.60
2024-02-18T09:13:45.366Z,1.73
2024-02-18T09:16:13.256Z,2.50
2024-02-18T09:18:41.324Z,2.20
2024-02-18T09:21:09.164Z,1.70
2024-02-18T09:23:38.297Z,2.72
2024-02-18T09:26:06.308Z,1.77
2024-02-18T09:28:35.112Z,1.80
2024-02-18T09:31:03.549Z,2.20
2024-02-18T09:33:31.677Z,1.67
2024-02-18T09:35:59.624Z,2.10
2024-02-18T09:38:27.364Z,1.98
2024-02-18T09:40:56.596Z,1.70
2024-02-18T09:43:28.007Z,1.70
2024-02-18T09:45:57.418Z,1.77
2024-02-18T09:48:26.058Z,1.75
2024-02-18T09:50:54.740Z,1.88
2024-02-18T09:53:22.733Z,1.90
2024-02-18T09:55:51.208Z,1.83
2024-02-18T09:58:20.935Z,1.55
2024-02-18T10:00:48.963Z,1.70
2024-02-18T10:03:16.912Z,1.67
2024-02-18T10:05:44.748Z,1.60
2024-02-18T10:08:12.528Z,1.52
2024-02-18T10:10:40.304Z,1.88
2024-02-18T10:13:10.193Z,2.08
2024-02-18T10:15:39.429Z,1.40
2024-02-18T10:18:08.928Z,1.63
2024-02-18T10:20:36.879Z,1.50
2024-02-18T10:23:05.354Z,2.08
2024-02-18T10:25:33.362Z,1.75
2024-02-18T10:28:01.262Z,1.50
2024-02-18T10:30:29.403Z,1.77
2024-02-18T10:32:58.725Z,1.55
2024-02-18T10:35:26.835Z,1.38
2024-02-18T10:37:58.411Z,1.40
2024-02-18T10:40:33.356Z,1.70
2024-02-18T10:43:02.480Z,1.38
2024-02-18T10:45:30.584Z,2.15
2024-02-18T10:48:02.408Z,1.20
2024-02-18T10:50:36.013Z,1.27
2024-02-18T10:53:17.535Z,1.45
2024-02-18T10:55:50.638Z,1.48
2024-02-18T10:58:24.594Z,1.60
2024-02-18T11:00:56.675Z,1.50
2024-02-18T11:03:34.794Z,1.50
2024-02-18T11:06:05.045Z,1.50
2024-02-18T11:08:35.183Z,2.78
2024-02-18T11:11:04.162Z,1.50
2024-02-18T11:13:35.797Z,1.75
2024-02-18T11:16:04.234Z,1.60
2024-02-18T11:18:34.405Z,1.27
2024-02-18T11:21:02.760Z,1.67
2024-02-18T11:23:33.703Z,1.50
2024-02-18T11:26:02.368Z,2.38
2024-02-18T11:28:33.406Z,1.40
2024-02-18T11:31:01.260Z,1.92
2024-02-18T11:33:35.342Z,1.55
2024-02-18T11:36:14.333Z,2.03
2024-02-18T11:38:46.598Z,1.33
2024-02-18T11:41:19.452Z,1.50
2024-02-18T11:43:53.321Z,1.55
2024-02-18T11:46:22.221Z,1.52
2024-02-18T11:48:51.665Z,1.42
2024-02-18T11:51:19.518Z,1.98
2024-02-18T11:53:47.423Z,1.42
2024-02-18T11:56:16.031Z,1.50
2024-02-18T11:58:45.845Z,1.63
2024-02-18T12:01:16.739Z,1.40
2024-02-18T12:03:47.785Z,2.13
2024-02-18T12:06:17.529Z,1.50
2024-02-18T12:08:45.466Z,1.60
2024-02-18T12:11:13.324Z,1.95
2024-02-18T12:13:41.183Z,1.33
2024-02-18T12:16:09.462Z,1.40
2024-02-18T12:18:37.577Z,1.52
2024-02-18T12:21:05.686Z,1.38
2024-02-18T12:23:41.712Z,1.65
2024-02-18T12:26:09.540Z,2.05
2024-02-18T12:28:37.302Z,1.60
2024-02-18T12:31:05.639Z,2.05
2024-02-18T12:33:34.898Z,1.45
2024-02-18T12:36:02.914Z,1.50
2024-02-18T12:38:30.785Z,2.20
2024-02-18T12:41:00.013Z,1.40
2024-02-18T12:44:10.475Z,1.88
2024-02-18T12:46:17.368Z,1.83
2024-02-18T12:48:45.511Z,1.60
2024-02-18T12:51:14.598Z,1.70
2024-02-18T12:53:44.247Z,1.60
2024-02-18T12:56:13.905Z,1.33
2024-02-18T12:58:41.899Z,1.70
2024-02-18T13:01:11.338Z,1.70
2024-02-18T13:03:40.611Z,1.67
2024-02-18T13:06:11.499Z,1.80
2024-02-18T13:08:39.527Z,1.70
2024-02-18T13:11:07.356Z,2.08
2024-02-18T13:13:36.435Z,1.88
2024-02-18T13:16:04.641Z,2.10
2024-02-18T13:18:32.450Z,2.50
2024-02-18T13:21:01.918Z,1.77
2024-02-18T13:23:29.788Z,1.80
2024-02-18T13:25:57.612Z,2.70
2024-02-18T13:28:25.435Z,2.00
2024-02-18T13:30:54.945Z,2.88
2024-02-18T13:33:24.265Z,2.85
2024-02-18T13:35:52.361Z,3.38
2024-02-18T13:38:21.077Z,2.75
2024-02-18T13:40:48.877Z,2.08
2024-02-18T13:43:18.968Z,2.63
2024-02-18T13:45:47.383Z,2.97
2024-02-18T13:48:16.630Z,2.47
2024-02-18T13:50:44.482Z,2.90
2024-02-18T13:53:12.235Z,2.80
2024-02-18T13:55:40.039Z,2.88
2024-02-18T13:58:08.419Z,2.83
2024-02-18T14:00:36.280Z,2.13
2024-02-18T14:03:04.961Z,2.50
2024-02-18T14:05:34.535Z,2.30
2024-02-18T14:08:02.380Z,2.53
2024-02-18T14:10:30.150Z,2.63
2024-02-18T14:12:58.065Z,2.50
2024-02-18T14:15:27.491Z,2.33
2024-02-18T14:17:57.802Z,2.63
2024-02-18T14:20:26.582Z,2.33
2024-02-18T14:22:57.985Z,2.40
2024-02-18T14:25:25.800Z,2.50
2024-02-18T14:27:53.653Z,2.22
2024-02-18T14:30:22.486Z,2.15
2024-02-18T14:32:50.366Z,1.73
2024-02-18T14:35:18.225Z,1.80
2024-02-18T14:37:46.002Z,1.70
2024-02-18T14:40:15.722Z,1.70
2024-02-18T14:42:44.513Z,1.60
2024-02-18T14:45:14.366Z,2.10
2024-02-18T14:47:43.392Z,1.70
2024-02-18T14:50:12.009Z,1.23
2024-02-18T14:52:40.199Z,1.73
2024-02-18T14:55:09.165Z,1.65
2024-02-18T14:57:39.157Z,1.70
2024-02-18T15:00:10.983Z,1.50
2024-02-18T15:02:41.829Z,1.58
2024-02-18T15:05:12.150Z,1.45
2024-02-18T15:07:40.322Z,1.50
2024-02-18T15:10:09.624Z,1.30
2024-02-18T15:12:39.017Z,1.42
2024-02-18T15:15:07.868Z,1.30
2024-02-18T15:17:36.045Z,1.58
2024-02-18T15:20:07.437Z,1.58
2024-02-18T15:22:38.220Z,1.25
2024-02-18T15:25:07.297Z,1.38
2024-02-18T15:27:35.273Z,1.67
2024-02-18T15:30:05.124Z,1.35
2024-02-18T15:32:32.968Z,1.70
2024-02-18T15:35:00.906Z,1.20
2024-02-18T15:37:28.756Z,1.17
2024-02-18T15:39:56.526Z,1.27
2024-02-18T15:42:24.317Z,1.35
2024-02-18T15:44:52.129Z,1.20
2024-02-18T15:47:21.339Z,1.48
2024-02-18T15:49:49.849Z,1.20
2024-02-18T15:52:17.874Z,1.33
2024-02-18T15:54:45.871Z,1.35
2024-02-18T15:57:13.639Z,1.23
2024-02-18T15:59:41.397Z,1.55
2024-02-18T16:02:09.258Z,1.67
2024-02-18T16:04:38.624Z,1.38
2024-02-18T16:07:06.564Z,1.20
2024-02-18T16:09:34.402Z,1.98
2024-02-18T16:12:02.228Z,1.48
2024-02-18T16:14:29.981Z,1.40
2024-02-18T16:16:57.761Z,1.42
2024-02-18T16:19:25.603Z,1.65
2024-02-18T16:21:54.907Z,1.70
2024-02-18T16:24:22.965Z,1.35
2024-02-18T16:26:51.969Z,2.17
2024-02-18T16:29:19.749Z,1.60
2024-02-18T16:31:47.903Z,1.17
2024-02-18T16:34:15.953Z,1.48
2024-02-18T16:36:44.892Z,1.77
2024-02-18T16:39:15.102Z,1.02
2024-02-18T16:41:43.652Z,1.00
2024-02-18T16:44:11.434Z,1.73
2024-02-18T16:46:40.408Z,1.17
2024-02-18T16:49:09.243Z,1.15
2024-02-18T16:51:45.015Z,1.08
2024-02-18T16:54:14.758Z,1.08
2024-02-18T16:56:42.572Z,1.48
2024-02-18T16:59:10.306Z,1.63
2024-02-18T17:01:38.160Z,1.30
2024-02-18T17:04:09.218Z,0.88
2024-02-18T17:06:39.718Z,1.05
2024-02-18T17:09:07.672Z,1.20
2024-02-18T17:11:36.879Z,1.55
2024-02-18T17:14:05.498Z,1.20
2024-02-18T17:16:36.967Z,1.65
2024-02-18T17:19:07.392Z,1.27
2024-02-18T17:21:35.527Z,2.15
2024-02-18T17:24:04.497Z,1.13
2024-02-18T17:26:32.615Z,1.38
2024-02-18T17:29:01.918Z,2.10
2024-02-18T17:31:29.747Z,1.40
2024-02-18T17:33:57.776Z,1.40
2024-02-18T17:36:26.080Z,1.13
2024-02-18T17:38:53.926Z,1.48
2024-02-18T17:41:21.797Z,1.20
2024-02-18T17:43:49.670Z,1.95
2024-02-18T17:46:19.231Z,1.48
2024-02-18T17:48:47.361Z,1.42
2024-02-18T17:51:15.264Z,1.70
2024-02-18T17:53:43.121Z,2.20
2024-02-18T17:56:10.898Z,1.45
2024-02-18T17:58:38.845Z,1.48
2024-02-18T18:01:06.692Z,2.00
2024-02-18T18:03:35.951Z,1.60
2024-02-18T18:06:03.833Z,1.40
2024-02-18T18:08:31.612Z,1.40
2024-02-18T18:11:00.036Z,1.33
2024-02-18T18:13:28.190Z,1.90
2024-02-18T18:15:56.518Z,2.33
2024-02-18T18:18:24.418Z,1.60
2024-02-18T18:20:53.950Z,1.75
2024-02-18T18:23:24.085Z,1.88
2024-02-18T18:25:51.882Z,1.55
2024-02-18T18:28:19.758Z,1.42
2024-02-18T18:30:47.598Z,1.70
2024-02-18T18:33:15.468Z,1.77
2024-02-18T18:35:43.205Z,1.65
2024-02-18T18:38:12.357Z,1.48
2024-02-18T18:40:40.158Z,2.50
2024-02-18T18:43:10.435Z,2.05
2024-02-18T18:45:38.247Z,2.20
2024-02-18T18:48:07.202Z,1.63
2024-02-18T18:50:35.068Z,2.17
2024-02-18T18:53:02.806Z,1.70
2024-02-18T18:55:31.983Z,1.80
2024-02-18T18:58:00.615Z,1.65
2024-02-18T19:00:29.394Z,2.00
2024-02-18T19:02:57.442Z,1.60
2024-02-18T19:05:25.542Z,2.10
2024-02-18T19:07:53.445Z,2.50
2024-02-18T19:10:21.357Z,2.10
2024-02-18T19:12:50.615Z,1.90
2024-02-18T19:15:20.371Z,1.70
2024-02-18T19:17:49.074Z,1.95
2024-02-18T19:20:17.475Z,1.70
2024-02-18T19:22:45.377Z,1.92
2024-02-18T19:25:13.439Z,1.92
2024-02-18T19:27:41.347Z,3.05
2024-02-18T19:30:15.199Z,1.88
2024-02-18T19:32:43.138Z,2.00
2024-02-18T19:35:11.248Z,1.95
2024-02-18T19:37:41.507Z,2.42
2024-02-18T19:40:11.618Z,2.20
2024-02-18T19:42:39.427Z,2.53
2024-02-18T19:45:07.941Z,2.47
2024-02-18T19:47:37.089Z,2.08
2024-02-18T19:50:05.539Z,3.13
2024-02-18T19:52:33.310Z,2.47
2024-02-18T19:55:05.096Z,2.38
2024-02-18T19:57:32.930Z,3.00
2024-02-18T20:00:00.737Z,2.20
2024-02-18T20:02:28.488Z,2.90
2024-02-18T20:04:57.709Z,2.88
2024-02-18T20:07:25.941Z,2.45
2024-02-18T20:09:53.942Z,3.30
2024-02-18T20:12:21.707Z,3.10
2024-02-18T20:14:49.503Z,3.58
2024-02-18T20:17:17.416Z,3.42
2024-02-18T20:19:45.957Z,2.63
2024-02-18T20:22:15.290Z,2.80
2024-02-18T20:24:44.092Z,4.07
2024-02-18T20:27:11.997Z,4.10
2024-02-18T20:29:41.579Z,3.30
2024-02-18T20:32:09.874Z,3.50
2024-02-18T20:34:40.138Z,4.32
2024-02-18T20:37:08.753Z,3.15
2024-02-18T20:39:42.264Z,3.33
2024-02-18T20:42:10.462Z,4.18
2024-02-18T20:44:39.002Z,4.40
2024-02-18T20:47:08.156Z,3.95
2024-02-18T20:49:36.791Z,4.07
2024-02-18T20:52:07.293Z,4.07
2024-02-18T20:54:35.138Z,4.40
2024-02-18T20:57:04.390Z,3.50
2024-02-18T20:59:32.169Z,3.55
2024-02-18T21:02:00.030Z,3.72
2024-02-18T21:04:28.452Z,3.28
2024-02-18T21:06:56.420Z,4.20
2024-02-18T21:09:24.326Z,3.67
2024-02-18T21:11:52.047Z,3.47
2024-02-18T21:14:22.021Z,3.40
2024-02-18T21:16:53.001Z,4.07
2024-02-18T21:19:20.847Z,4.10
2024-02-18T21:21:49.246Z,3.40
2024-02-18T21:24:17.103Z,4.03
2024-02-18T21:26:44.878Z,4.53
2024-02-18T21:29:12.614Z,3.90
2024-02-18T21:31:41.768Z,3.08
2024-02-18T21:34:12.469Z,3.60
2024-02-18T21:36:43.447Z,3.35
2024-02-18T21:39:11.448Z,3.55
2024-02-18T21:41:45.394Z,4.00
2024-02-18T21:44:13.156Z,4.28
2024-02-18T21:46:47.001Z,3.47
2024-02-18T21:49:15.107Z,2.85
2024-02-18T21:51:43.115Z,3.85
2024-02-18T21:54:11.074Z,4.13
2024-02-18T21:56:38.833Z,4.15
2024-02-18T21:59:06.599Z,3.28
2024-02-18T22:01:36.771Z,3.85
2024-02-18T22:04:06.396Z,5.38
2024-02-18T22:06:34.360Z,3.20
2024-02-18T22:09:02.200Z,4.10
2024-02-18T22:11:33.889Z,3.28
2024-02-18T22:14:02.851Z,3.78
2024-02-18T22:16:30.621Z,3.83
2024-02-18T22:18:58.481Z,4.85
2024-02-18T22:21:27.738Z,3.63
2024-02-18T22:23:55.511Z,5.07
2024-02-18T22:26:23.254Z,4.10
2024-02-18T22:28:51.035Z,3.60
2024-02-18T22:31:18.829Z,3.78
2024-02-18T22:33:46.784Z,4.03
2024-02-18T22:36:14.586Z,4.85
2024-02-18T22:38:43.737Z,3.75
2024-02-18T22:41:11.487Z,3.40
2024-02-18T22:43:39.278Z,3.88
2024-02-18T22:46:07.167Z,3.85
2024-02-18T22:48:35.630Z,3.75
2024-02-18T22:51:03.422Z,4.20
2024-02-18T22:53:31.177Z,4.60
2024-02-18T22:56:00.323Z,5.32
2024-02-18T22:58:28.111Z,3.40
2024-02-18T23:00:55.908Z,4.03
2024-02-18T23:03:23.780Z,4.50
2024-02-18T23:05:51.701Z,4.65
2024-02-18T23:08:19.503Z,3.85
2024-02-18T23:10:47.347Z,4.07
2024-02-18T23:13:16.585Z,4.13
2024-02-18T23:15:44.606Z,4.18
2024-02-18T23:18:12.645Z,3.33
2024-02-18T23:20:40.653Z,4.70
2024-02-18T23:23:08.713Z,3.90
2024-02-18T23:25:36.581Z,3.78
2024-02-18T23:28:04.810Z,4.63
2024-02-18T23:30:34.105Z,4.82
2024-02-18T23:33:02.008Z,4.18
2024-02-18T23:35:29.785Z,4.13
2024-02-18T23:37:57.534Z,4.40
2024-02-18T23:40:25.468Z,4.35
2024-02-18T23:42:53.345Z,4.90
2024-02-18T23:45:21.109Z,4.78
2024-02-18T23:47:50.282Z,4.38
2024-02-18T23:50:18.104Z,4.20
2024-02-18T23:52:45.919Z,3.70
2024-02-18T23:55:14.231Z,4.65
2024-02-18T23:57:42.205Z,3.72
